Time;durP1;ratioP1;P1;durP2;ratioP2;P2;SDS_P1;SDS_P2;PMS_P1;PMS_P2;Temp;Humidity;BMP_temperature;BMP_pressure;BME280_temperature;BME280_humidity;BME280_pressure;Samples;Min_cycle;Max_cycle;Signal;HPM_P1;HPM_P2
2022/08/09 00:00:09;;;;;;;;;7.67;7.67;;;;;24.87;46.42;102118.56;5093285;27;45388;-67
2022/08/09 00:02:34;;;;;;;;;7.00;7.00;;;;;24.93;46.57;102123.31;5070072;27;45578;-67
2022/08/09 00:05:00;;;;;;;;;8.00;8.00;;;;;24.93;46.29;102120.53;5092119;27;45405;-68
2022/08/09 00:07:26;;;;;;;;;8.67;7.67;;;;;24.89;46.28;102130.34;5084904;27;45743;-67
2022/08/09 00:09:51;;;;;;;;;7.00;7.00;;;;;24.72;46.88;102119.59;5074221;27;45281;-67
2022/08/09 00:12:17;;;;;;;;;8.00;8.00;;;;;24.59;47.72;102122.31;5086567;27;45307;-66
2022/08/09 00:14:42;;;;;;;;;8.67;8.67;;;;;24.37;48.76;102129.91;5093818;27;45248;-67
2022/08/09 00:17:08;;;;;;;;;7.00;5.67;;;;;24.47;48.54;102124.00;5097618;27;46487;-66
2022/08/09 00:19:33;;;;;;;;;4.67;4.67;;;;;24.56;48.07;102122.72;5092647;27;45445;-66
2022/08/09 00:21:58;;;;;;;;;7.00;6.00;;;;;24.50;48.83;102128.25;5066843;28;45515;-67
2022/08/09 00:24:25;;;;;;;;;7.33;6.67;;;;;24.51;48.30;102121.63;5094130;27;45533;-67
2022/08/09 00:26:51;;;;;;;;;7.00;6.00;;;;;24.34;49.06;102115.56;5086390;27;46155;-67
2022/08/09 00:29:16;;;;;;;;;7.67;6.67;;;;;24.36;49.09;102105.97;5081483;27;45621;-67
2022/08/09 00:31:42;;;;;;;;;7.00;7.00;;;;;24.26;49.63;102110.19;5092942;27;45326;-67
2022/08/09 00:34:07;;;;;;;;;7.33;7.00;;;;;24.36;49.58;102116.22;5097633;27;45318;-67
2022/08/09 00:36:33;;;;;;;;;9.00;8.00;;;;;24.26;50.67;102110.19;5069920;27;47952;-67
2022/08/09 00:38:58;;;;;;;;;9.00;8.00;;;;;24.39;49.97;102121.38;5088412;27;45918;-67
2022/08/09 00:41:24;;;;;;;;;10.00;8.00;;;;;24.34;50.68;102113.66;5086975;27;45544;-69
2022/08/09 00:43:49;;;;;;;;;7.67;6.67;;;;;24.29;50.49;102110.63;5089813;27;45567;-68
2022/08/09 00:46:15;;;;;;;;;8.00;8.00;;;;;24.47;50.57;102106.47;5087731;27;46590;-68
2022/08/09 00:48:41;;;;;;;;;10.67;9.00;;;;;24.40;50.14;102114.78;5072683;27;45274;-68
2022/08/09 00:51:06;;;;;;;;;7.33;7.33;;;;;24.35;50.66;102115.38;5090814;27;45398;-68
2022/08/09 00:53:34;;;;;;;;;6.00;6.00;;;;;24.49;50.24;102116.28;5087436;27;45231;-68
2022/08/09 00:55:59;;;;;;;;;8.00;8.00;;;;;24.13;51.60;102104.53;5091086;27;46162;-68
2022/08/09 00:58:25;;;;;;;;;7.00;7.00;;;;;23.95;52.96;102119.81;5085273;27;45448;-68
2022/08/09 01:00:53;;;;;;;;;7.00;7.00;;;;;24.02;52.44;102115.16;5092346;27;45493;-68
2022/08/09 01:03:56;;;;;;;;;8.33;7.00;;;;;23.86;53.34;102115.47;5073437;28;45481;-68
2022/08/09 01:06:38;;;;;;;;;6.00;6.00;;;;;24.11;52.26;102115.00;5085331;27;46894;-68
2022/08/09 01:09:23;;;;;;;;;6.00;6.00;;;;;24.08;52.82;102116.25;5090919;27;45521;-68
2022/08/09 01:12:03;;;;;;;;;7.00;7.00;;;;;23.93;53.62;102116.38;5088503;27;45295;-68
2022/08/09 01:14:31;;;;;;;;;7.67;7.67;;;;;23.85;53.94;102119.31;5074807;27;45446;-68
2022/08/09 01:17:18;;;;;;;;;5.67;5.67;;;;;23.89;53.29;102125.31;5103142;27;46262;-68
2022/08/09 01:19:57;;;;;;;;;8.67;7.00;;;;;23.91;53.23;102110.16;5090206;27;45404;-68
2022/08/09 01:22:40;;;;;;;;;11.00;7.00;;;;;23.77;54.41;102111.13;5089297;27;45317;-68
2022/08/09 01:25:17;;;;;;;;;9.00;7.67;;;;;23.84;54.56;102117.59;5092274;27;45390;-68
2022/08/09 01:27:44;;;;;;;;;8.00;6.67;;;;;23.72;54.62;102116.44;5086283;27;45867;-68
2022/08/09 01:30:10;;;;;;;;;6.67;6.67;;;;;23.64;54.73;102117.44;5067882;28;45914;-68
2022/08/09 01:32:43;;;;;;;;;6.67;5.00;;;;;23.37;55.67;102093.28;5097299;27;45555;-68
2022/08/09 01:35:14;;;;;;;;;7.33;7.33;;;;;23.52;55.81;102115.44;5089341;27;45279;-68
2022/08/09 01:37:42;;;;;;;;;8.00;7.00;;;;;23.50;56.17;102110.06;5087037;27;45574;-68
2022/08/09 01:40:10;;;;;;;;;7.33;7.33;;;;;23.23;57.05;102111.69;5087155;27;45298;-68
2022/08/09 01:42:38;;;;;;;;;5.67;5.67;;;;;23.36;56.85;102112.91;5086396;27;45576;-68
2022/08/09 01:45:05;;;;;;;;;7.00;7.00;;;;;23.46;56.41;102107.84;5100635;27;45487;-68
2022/08/09 01:47:31;;;;;;;;;6.00;6.00;;;;;23.52;56.16;102107.09;5090294;27;45536;-68
2022/08/09 01:50:02;;;;;;;;;6.00;6.00;;;;;23.41;56.41;102108.47;5094673;27;45345;-68
2022/08/09 01:52:29;;;;;;;;;6.33;6.33;;;;;23.42;56.18;102103.78;5084420;27;45340;-68
2022/08/09 01:54:57;;;;;;;;;6.00;5.00;;;;;23.42;57.11;102112.09;5098546;27;45547;-68
2022/08/09 01:57:28;;;;;;;;;5.00;5.00;;;;;23.30;57.20;102111.78;5091810;27;48236;-68
2022/08/09 01:59:57;;;;;;;;;8.33;7.00;;;;;23.41;56.94;102108.47;5096225;27;45551;-68
2022/08/09 02:02:27;;;;;;;;;8.00;8.00;;;;;23.39;57.34;102118.03;5090722;27;45389;-68
2022/08/09 02:04:55;;;;;;;;;9.67;9.67;;;;;23.34;56.90;102103.91;5101252;27;45465;-68
2022/08/09 02:07:25;;;;;;;;;7.00;6.33;;;;;23.42;57.05;102114.88;5103441;27;45433;-68
2022/08/09 02:09:58;;;;;;;;;10.33;7.00;;;;;23.33;57.10;102105.81;5098467;27;45441;-67
2022/08/09 02:12:24;;;;;;;;;8.00;6.33;;;;;23.37;56.72;102106.28;5091819;27;45310;-67
2022/08/09 02:14:53;;;;;;;;;6.00;6.00;;;;;23.37;56.95;102107.16;5092800;27;45719;-67
2022/08/09 02:17:22;;;;;;;;;6.67;6.67;;;;;23.47;56.45;102109.56;5068555;27;45589;-67
2022/08/09 02:19:48;;;;;;;;;8.33;7.33;;;;;23.37;57.15;102106.28;5090853;27;45384;-67
2022/08/09 02:22:29;;;;;;;;;7.67;7.00;;;;;23.16;57.91;102098.81;5096296;27;45361;-67
2022/08/09 02:24:57;;;;;;;;;10.00;8.00;;;;;23.07;58.53;102111.97;5095496;27;45287;-67
2022/08/09 02:27:28;;;;;;;;;7.00;7.00;;;;;23.00;59.17;102108.28;5083466;27;47621;-67
2022/08/09 02:29:54;;;;;;;;;7.67;6.67;;;;;23.09;58.49;102106.22;5096485;27;45694;-67
2022/08/09 02:32:24;;;;;;;;;7.67;6.67;;;;;23.03;58.73;102102.31;5085041;27;45477;-67
2022/08/09 02:34:56;;;;;;;;;7.00;7.00;;;;;23.12;58.24;102109.47;5092935;27;45552;-67
2022/08/09 02:37:27;;;;;;;;;8.00;8.00;;;;;23.08;58.77;102110.06;5103540;27;45440;-67
2022/08/09 02:40:02;;;;;;;;;9.00;7.00;;;;;23.11;58.24;102104.97;5091873;27;45386;-68
2022/08/09 02:42:35;;;;;;;;;8.00;8.00;;;;;23.03;58.62;102107.88;5085347;27;45460;-67
2022/08/09 02:45:14;;;;;;;;;11.67;9.33;;;;;23.06;59.06;102101.09;5100924;27;46233;-67
2022/08/09 02:47:42;;;;;;;;;6.33;6.33;;;;;23.06;58.71;102104.72;5084195;27;46024;-67
2022/08/09 02:50:14;;;;;;;;;7.00;7.00;;;;;23.04;59.16;102104.06;5094928;27;45430;-67
2022/08/09 02:52:46;;;;;;;;;9.00;6.67;;;;;23.19;57.74;102110.38;5089079;27;45286;-67
2022/08/09 02:55:13;;;;;;;;;7.67;7.67;;;;;23.01;59.10;102098.91;5078800;28;45434;-67
2022/08/09 02:57:40;;;;;;;;;8.00;8.00;;;;;23.05;59.10;102097.44;5085070;27;45360;-67
2022/08/09 03:00:10;;;;;;;;;10.33;9.00;;;;;22.89;60.03;102094.94;5094445;27;45336;-67
2022/08/09 03:02:38;;;;;;;;;8.67;8.00;;;;;22.82;60.77;102103.19;5068524;27;45381;-67
2022/08/09 03:05:07;;;;;;;;;7.00;7.00;;;;;22.89;60.36;102103.25;5095240;27;45408;-68
2022/08/09 03:07:35;;;;;;;;;12.33;9.00;;;;;22.71;61.18;102097.25;5086751;27;46536;-67
2022/08/09 03:10:02;;;;;;;;;6.67;6.67;;;;;22.81;60.37;102100.59;5099022;27;45168;-68
2022/08/09 03:12:28;;;;;;;;;9.67;8.00;;;;;22.85;60.03;102099.16;5086385;27;45169;-67
2022/08/09 03:14:55;;;;;;;;;8.67;8.67;;;;;22.72;60.83;102098.97;5093555;27;45470;-68
2022/08/09 03:17:23;;;;;;;;;8.00;7.00;;;;;22.87;60.62;102102.56;5085885;27;46287;-68
2022/08/09 03:19:49;;;;;;;;;10.00;10.00;;;;;22.88;60.88;102098.75;5089995;27;45392;-68
2022/08/09 03:22:17;;;;;;;;;10.00;10.00;;;;;22.94;59.54;102097.13;5086008;27;45328;-68
2022/08/09 03:24:42;;;;;;;;;9.00;8.67;;;;;22.93;59.93;102103.72;5100873;27;45634;-68
2022/08/09 03:27:09;;;;;;;;;8.67;8.67;;;;;22.82;60.64;102099.53;5091328;27;45335;-68
2022/08/09 03:29:37;;;;;;;;;8.67;8.67;;;;;22.93;59.16;102107.34;5089808;27;45593;-68
2022/08/09 03:32:04;;;;;;;;;9.00;9.00;;;;;22.76;61.40;102103.97;5069053;28;45558;-68
2022/08/09 03:34:29;;;;;;;;;11.33;7.67;;;;;22.72;60.87;102093.44;5074734;28;45429;-67
2022/08/09 03:36:56;;;;;;;;;9.33;6.67;;;;;22.70;61.19;102095.53;5083812;27;45582;-68
2022/08/09 03:39:24;;;;;;;;;7.67;7.67;;;;;22.45;62.24;102087.56;5085993;27;45322;-68
2022/08/09 03:41:50;;;;;;;;;8.67;8.67;;;;;22.44;62.39;102091.38;5099551;27;45346;-67
2022/08/09 03:44:15;;;;;;;;;14.67;10.67;;;;;22.43;62.58;102095.19;5093843;27;45431;-67
2022/08/09 03:46:40;;;;;;;;;7.00;5.67;;;;;22.39;62.77;102101.34;5086315;27;45306;-68
2022/08/09 03:49:07;;;;;;;;;7.00;7.00;;;;;22.50;62.50;102098.09;5092247;27;45623;-68
2022/08/09 03:51:34;;;;;;;;;12.00;12.00;;;;;22.49;62.54;102094.44;5087456;27;45408;-68
2022/08/09 03:53:59;;;;;;;;;6.33;6.33;;;;;22.48;62.16;102098.28;5093492;27;45368;-67
2022/08/09 03:56:25;;;;;;;;;11.33;8.67;;;;;22.47;62.76;102102.09;5088005;27;45343;-68
2022/08/09 03:58:50;;;;;;;;;12.33;9.00;;;;;22.29;63.41;102098.84;5094616;27;45321;-68
2022/08/09 04:01:16;;;;;;;;;8.67;7.33;;;;;22.27;63.85;102098.22;5089738;27;45799;-67
2022/08/09 04:03:42;;;;;;;;;7.00;7.00;;;;;22.28;63.66;102097.13;5092375;27;45422;-68
2022/08/09 04:06:08;;;;;;;;;7.67;7.33;;;;;22.34;63.25;102096.38;5084955;27;47060;-67
2022/08/09 04:08:33;;;;;;;;;12.00;11.00;;;;;22.39;62.99;102093.03;5092919;27;45426;-67
2022/08/09 04:10:59;;;;;;;;;11.67;11.67;;;;;22.29;63.65;102104.38;5089652;27;45577;-67
2022/08/09 04:13:24;;;;;;;;;10.33;9.00;;;;;22.36;63.09;102105.34;5100704;27;45157;-68
2022/08/09 04:15:49;;;;;;;;;10.00;10.00;;;;;22.36;63.01;102115.56;5089061;27;45579;-67
2022/08/09 04:18:15;;;;;;;;;10.33;10.00;;;;;22.37;62.90;102118.13;5088864;27;45487;-68
2022/08/09 04:20:40;;;;;;;;;9.00;9.00;;;;;22.31;63.61;102116.16;5102270;27;45458;-68
2022/08/09 04:23:07;;;;;;;;;8.00;8.00;;;;;22.42;62.33;102117.56;5091403;27;45372;-68
2022/08/09 04:25:32;;;;;;;;;8.67;8.67;;;;;22.47;61.81;102118.72;5093924;27;45401;-67
2022/08/09 04:27:58;;;;;;;;;7.00;7.00;;;;;22.53;61.47;102122.59;5092447;27;45227;-68
2022/08/09 04:30:23;;;;;;;;;12.33;12.00;;;;;22.31;62.87;102113.38;5075791;27;45393;-68
2022/08/09 04:32:48;;;;;;;;;9.33;9.33;;;;;22.25;63.74;102119.69;5083876;27;45463;-67
2022/08/09 04:35:14;;;;;;;;;11.67;10.00;;;;;22.31;63.27;102115.28;5096159;27;45727;-68
2022/08/09 04:37:40;;;;;;;;;8.00;8.00;;;;;22.36;63.30;102133.03;5101256;27;45463;-68
2022/08/09 04:40:06;;;;;;;;;13.00;11.00;;;;;22.43;62.93;102122.03;5083767;27;45402;-68
2022/08/09 04:42:32;;;;;;;;;13.67;12.67;;;;;22.16;64.11;102115.28;5087196;27;45422;-68
2022/08/09 04:44:59;;;;;;;;;7.33;7.33;;;;;22.36;62.73;102121.09;5082212;27;45565;-69
2022/08/09 04:47:27;;;;;;;;;9.33;9.33;;;;;22.21;64.29;102123.88;5064164;27;45411;-68
2022/08/09 04:49:53;;;;;;;;;12.33;10.33;;;;;22.00;64.94;102132.94;5096714;27;45444;-68
2022/08/09 04:52:19;;;;;;;;;11.00;9.00;;;;;22.10;64.60;102116.91;5089059;27;45425;-68
2022/08/09 04:54:46;;;;;;;;;10.67;10.00;;;;;22.13;64.53;102126.75;5093771;27;46577;-68
2022/08/09 04:57:12;;;;;;;;;10.00;10.00;;;;;22.28;63.40;102124.00;5091225;27;45311;-68
2022/08/09 04:59:38;;;;;;;;;12.00;12.00;;;;;22.26;63.99;102124.19;5088917;27;45242;-68
2022/08/09 05:02:03;;;;;;;;;10.00;8.67;;;;;22.30;64.06;102133.81;5087310;27;45167;-68
2022/08/09 05:04:29;;;;;;;;;9.00;9.00;;;;;22.33;64.11;102132.56;5084794;27;45366;-68
2022/08/09 05:06:54;;;;;;;;;9.67;9.00;;;;;22.39;63.08;102132.66;5082778;27;45601;-68
2022/08/09 05:09:20;;;;;;;;;12.67;11.67;;;;;22.34;63.99;102128.75;5101436;27;45418;-69
2022/08/09 05:11:45;;;;;;;;;9.00;9.00;;;;;22.35;63.10;102136.00;5102720;27;45398;-68
2022/08/09 05:14:11;;;;;;;;;12.00;9.00;;;;;22.36;63.52;102133.03;5081485;27;46912;-68
2022/08/09 05:16:36;;;;;;;;;11.33;11.33;;;;;22.41;62.38;102130.56;5104419;27;45501;-68
2022/08/09 05:19:02;;;;;;;;;10.00;10.00;;;;;22.57;62.51;102128.63;5089683;27;45452;-68
2022/08/09 05:21:27;;;;;;;;;8.00;8.00;;;;;22.59;61.99;102127.38;5090820;27;45434;-68
2022/08/09 05:23:53;;;;;;;;;7.00;7.00;;;;;22.67;62.15;102132.78;5091923;27;45382;-68
2022/08/09 05:26:19;;;;;;;;;10.33;7.67;;;;;22.78;61.25;102131.47;5098131;27;45340;-68
2022/08/09 05:28:44;;;;;;;;;12.67;12.67;;;;;22.82;60.81;102128.13;5095206;27;45569;-68
2022/08/09 05:31:10;;;;;;;;;14.00;9.33;;;;;22.75;61.96;102138.25;5088454;27;45338;-68
2022/08/09 05:33:35;;;;;;;;;6.33;6.33;;;;;22.90;60.17;102141.84;5089142;27;45324;-68
2022/08/09 05:36:02;;;;;;;;;13.00;11.00;;;;;22.94;60.17;102145.06;5088870;27;45259;-68
2022/08/09 05:38:28;;;;;;;;;10.00;9.00;;;;;22.76;61.40;102147.44;5070962;27;45331;-68
2022/08/09 05:40:53;;;;;;;;;13.67;10.00;;;;;22.89;61.06;102150.34;5100387;27;45496;-68
2022/08/09 05:43:19;;;;;;;;;10.67;9.00;;;;;23.03;59.54;102146.69;5101744;27;46331;-68
2022/08/09 05:45:44;;;;;;;;;8.00;7.67;;;;;22.79;60.46;102147.06;5097447;27;45409;-68
2022/08/09 05:48:10;;;;;;;;;10.67;10.00;;;;;23.78;57.73;102156.41;5088083;27;45731;-68
2022/08/09 05:50:35;;;;;;;;;10.67;10.67;;;;;24.26;55.14;102160.16;5100709;27;45409;-68
2022/08/09 05:53:01;;;;;;;;;9.00;7.00;;;;;23.84;55.95;102158.34;5087903;27;45574;-68
2022/08/09 05:55:26;;;;;;;;;12.67;12.67;;;;;23.70;56.62;102162.09;5097457;27;45420;-68
2022/08/09 05:57:52;;;;;;;;;10.00;10.00;;;;;23.51;57.64;102155.31;5083018;27;45274;-68
2022/08/09 06:00:17;;;;;;;;;11.33;11.33;;;;;23.52;57.63;102154.25;5095418;27;45415;-68
2022/08/09 06:02:43;;;;;;;;;9.67;7.33;;;;;23.47;57.51;102157.59;5086874;27;45348;-68
2022/08/09 06:05:09;;;;;;;;;8.00;7.67;;;;;23.34;58.73;102164.94;5091016;27;45357;-68
2022/08/09 06:07:34;;;;;;;;;8.67;7.33;;;;;23.48;57.92;102158.47;5084565;27;45261;-69
2022/08/09 06:10:01;;;;;;;;;10.00;10.00;;;;;23.56;57.67;102158.34;5089770;27;45441;-68
2022/08/09 06:12:26;;;;;;;;;7.00;7.00;;;;;23.77;56.61;102161.09;5084127;27;45511;-68
2022/08/09 06:14:51;;;;;;;;;6.00;6.00;;;;;23.92;56.08;102164.63;5092286;27;45272;-68
2022/08/09 06:17:17;;;;;;;;;10.33;9.00;;;;;23.89;56.07;102158.63;5066787;28;45371;-68
2022/08/09 06:19:42;;;;;;;;;8.00;8.00;;;;;23.72;56.80;102169.16;5096570;27;45421;-68
2022/08/09 06:22:08;;;;;;;;;15.00;10.00;;;;;24.21;54.84;102168.28;5081378;28;46290;-68
2022/08/09 06:24:33;;;;;;;;;9.33;9.33;;;;;24.54;53.65;102179.59;5081598;27;45435;-68
2022/08/09 06:26:58;;;;;;;;;9.33;8.00;;;;;24.72;52.76;102171.53;5087881;27;45320;-69
2022/08/09 06:29:24;;;;;;;;;7.00;6.00;;;;;24.40;53.80;102176.72;5089781;27;45452;-69
2022/08/09 06:31:49;;;;;;;;;4.00;4.00;;;;;24.38;53.61;102186.34;5079359;27;46362;-69
2022/08/09 06:34:15;;;;;;;;;10.00;10.00;;;;;24.11;54.47;102179.69;5086361;27;45753;-68
2022/08/09 06:36:40;;;;;;;;;11.33;10.00;;;;;24.01;55.02;102185.63;5100120;27;45647;-69
2022/08/09 06:39:09;;;;;;;;;11.67;10.00;;;;;23.76;56.19;102181.56;5101709;27;45440;-68
2022/08/09 06:41:35;;;;;;;;;11.33;9.00;;;;;23.74;56.47;102189.25;5094412;27;45394;-68
2022/08/09 06:44:01;;;;;;;;;12.67;11.67;;;;;23.83;56.23;102190.81;5092701;27;45393;-68
2022/08/09 06:46:26;;;;;;;;;13.00;10.67;;;;;24.19;54.95;102185.09;5081626;28;45267;-68
2022/08/09 06:48:51;;;;;;;;;8.67;8.67;;;;;24.20;54.84;102188.75;5089891;27;45467;-68
2022/08/09 06:51:17;;;;;;;;;9.00;7.33;;;;;24.21;54.62;102191.34;5089757;27;47286;-68
2022/08/09 06:53:42;;;;;;;;;9.33;6.67;;;;;24.20;54.74;102200.75;5096429;27;45274;-68
2022/08/09 06:56:08;;;;;;;;;11.67;10.00;;;;;24.36;53.64;102196.78;5091096;27;45230;-69
2022/08/09 06:58:33;;;;;;;;;8.00;7.00;;;;;24.51;53.65;102193.88;5087558;27;45299;-68
2022/08/09 07:00:59;;;;;;;;;11.33;11.33;;;;;24.36;54.06;102199.56;5091580;27;47355;-69
2022/08/09 07:03:25;;;;;;;;;11.33;9.00;;;;;24.22;54.38;102197.75;5085310;27;45527;-68
2022/08/09 07:05:50;;;;;;;;;13.00;11.33;;;;;24.38;54.15;102189.13;5089629;27;45414;-68
2022/08/09 07:08:16;;;;;;;;;12.00;12.00;;;;;24.70;52.98;102195.91;5093810;27;45464;-68
2022/08/09 07:10:41;;;;;;;;;10.00;10.00;;;;;24.87;52.96;102199.19;5100255;27;46582;-68
2022/08/09 07:13:07;;;;;;;;;11.33;9.33;;;;;24.97;52.19;102206.13;5078186;27;45892;-68
2022/08/09 07:15:33;;;;;;;;;9.67;9.67;;;;;24.96;52.43;102200.75;5091548;27;45457;-68
2022/08/09 07:17:58;;;;;;;;;9.67;7.67;;;;;24.84;52.15;102204.09;5097485;27;45306;-68
2022/08/09 07:20:24;;;;;;;;;9.00;8.00;;;;;24.97;52.12;102199.69;5088050;27;45761;-68
2022/08/09 07:22:50;;;;;;;;;16.33;11.00;;;;;24.66;52.90;102201.03;5085335;27;45453;-68
2022/08/09 07:25:16;;;;;;;;;9.00;8.00;;;;;24.70;53.11;102202.31;5076416;27;45411;-68
2022/08/09 07:27:42;;;;;;;;;11.33;10.00;;;;;24.96;52.44;102195.19;5088400;27;45244;-68
2022/08/09 07:30:09;;;;;;;;;7.33;6.67;;;;;25.26;51.00;102207.72;5088666;27;45534;-68
2022/08/09 07:32:34;;;;;;;;;9.00;9.00;;;;;25.13;51.13;102204.91;5081868;27;45791;-68
2022/08/09 07:35:11;;;;;;;;;11.67;11.67;;;;;25.24;51.26;102204.28;5088432;27;45400;-68
2022/08/09 07:37:38;;;;;;;;;14.33;13.33;;;;;25.28;51.02;102200.00;5085017;27;45622;-68
2022/08/09 07:40:04;;;;;;;;;8.33;8.33;;;;;25.51;50.17;102200.47;5102379;27;46447;-69
2022/08/09 07:42:29;;;;;;;;;9.00;8.67;;;;;25.53;50.10;102200.25;5101860;27;45491;-68
2022/08/09 07:44:54;;;;;;;;;6.33;6.33;;;;;25.70;49.78;102200.75;5075139;27;45397;-68
2022/08/09 07:47:21;;;;;;;;;14.00;9.33;;;;;25.69;49.37;102187.91;5104499;27;45168;-68
2022/08/09 07:49:46;;;;;;;;;9.00;9.00;;;;;25.65;49.16;102194.94;5092177;27;46201;-68
2022/08/09 07:52:12;;;;;;;;;9.33;9.33;;;;;25.74;49.25;102200.09;5091050;27;45227;-66
2022/08/09 07:54:37;;;;;;;;;9.67;9.00;;;;;25.80;48.76;102199.25;5090828;27;45329;-68
2022/08/09 07:57:03;;;;;;;;;6.33;6.33;;;;;26.07;48.57;102188.97;5092071;27;45234;-68
2022/08/09 07:59:28;;;;;;;;;11.33;10.00;;;;;26.39;47.41;102191.91;5087950;27;45251;-68
2022/08/09 08:01:54;;;;;;;;;11.00;9.33;;;;;26.10;47.91;102191.31;5090785;27;45371;-68
2022/08/09 08:04:20;;;;;;;;;7.00;7.00;;;;;26.45;47.13;102189.13;5087154;27;45328;-68
2022/08/09 08:06:46;;;;;;;;;10.00;10.00;;;;;26.71;46.28;102183.47;5089445;27;45370;-68
2022/08/09 08:09:11;;;;;;;;;10.33;10.33;;;;;26.82;45.24;102181.91;5087226;27;48224;-68
2022/08/09 08:11:37;;;;;;;;;7.00;6.00;;;;;27.11;44.59;102175.78;5072635;27;45365;-68
2022/08/09 08:14:03;;;;;;;;;10.33;8.67;;;;;26.87;44.48;102190.50;5091172;27;45442;-68
2022/08/09 08:16:28;;;;;;;;;10.00;10.00;;;;;26.78;44.73;102186.22;5083856;27;45472;-68
2022/08/09 08:18:53;;;;;;;;;10.00;9.00;;;;;27.12;44.09;102198.97;5079080;27;47858;-68
2022/08/09 08:21:19;;;;;;;;;9.67;8.00;;;;;27.56;43.42;102195.28;5087607;27;45293;-67
2022/08/09 08:23:44;;;;;;;;;9.00;8.67;;;;;27.88;42.46;102194.19;5086901;27;45342;-68
2022/08/09 08:26:09;;;;;;;;;6.33;5.67;;;;;28.33;42.21;102198.72;5098403;27;45475;-68
2022/08/09 08:28:35;;;;;;;;;8.00;8.00;;;;;28.54;40.99;102196.34;5077201;28;48111;-68
2022/08/09 08:31:01;;;;;;;;;8.00;8.00;;;;;28.58;40.35;102191.97;5095214;27;45455;-68
2022/08/09 08:33:27;;;;;;;;;5.33;5.33;;;;;28.83;39.92;102196.66;5087238;27;45290;-68
2022/08/09 08:35:52;;;;;;;;;12.67;12.33;;;;;28.88;40.01;102194.88;5092248;27;45666;-68
2022/08/09 08:38:18;;;;;;;;;11.00;8.00;;;;;28.62;39.23;102197.97;5086999;27;45401;-67
2022/08/09 08:40:43;;;;;;;;;10.00;10.00;;;;;28.96;38.87;102193.69;5092759;27;45403;-67
2022/08/09 08:43:09;;;;;;;;;9.00;9.00;;;;;29.19;38.09;102202.22;5084661;27;45416;-67
2022/08/09 08:45:43;;;;;;;;;9.00;9.00;;;;;28.98;37.89;102199.91;5094968;27;45449;-67
2022/08/09 08:48:08;;;;;;;;;5.00;5.00;;;;;28.79;38.05;102185.09;5066890;27;45290;-68
2022/08/09 08:50:34;;;;;;;;;9.33;9.00;;;;;28.65;38.81;102195.53;5079715;27;45421;-66
2022/08/09 08:53:00;;;;;;;;;12.67;10.67;;;;;28.91;38.09;102183.22;5081128;27;45329;-68
2022/08/09 08:55:26;;;;;;;;;8.00;7.33;;;;;29.21;37.49;102193.59;5094565;27;45618;-68
2022/08/09 08:57:54;;;;;;;;;9.00;8.67;;;;;29.59;36.39;102185.69;5067371;27;47472;-68
2022/08/09 09:00:19;;;;;;;;;11.00;9.33;;;;;30.08;35.73;102184.47;5097225;27;45334;-68
2022/08/09 09:02:46;;;;;;;;;6.00;6.00;;;;;30.33;35.58;102174.91;5100820;27;45258;-68
2022/08/09 09:05:12;;;;;;;;;9.33;9.33;;;;;30.66;34.14;102189.19;5080662;28;45555;-68
2022/08/09 09:07:38;;;;;;;;;9.00;7.67;;;;;30.91;34.12;102195.31;5083829;27;45326;-68
2022/08/09 09:10:07;;;;;;;;;8.33;8.33;;;;;30.70;34.84;102193.19;5090598;27;45182;-68
2022/08/09 09:12:34;;;;;;;;;8.33;7.00;;;;;30.71;34.39;102191.25;5082787;27;45338;-67
2022/08/09 09:15:01;;;;;;;;;6.00;6.00;;;;;30.10;35.32;102173.84;5093465;27;45581;-67
2022/08/09 09:17:27;;;;;;;;;9.67;9.67;;;;;30.48;34.65;102183.69;5095839;27;45288;-67
2022/08/09 09:19:53;;;;;;;;;9.33;8.00;;;;;30.33;35.29;102174.91;5093702;27;45239;-67
2022/08/09 09:22:20;;;;;;;;;9.00;8.00;;;;;30.54;34.86;102191.13;5081915;27;45464;-67
2022/08/09 09:24:51;;;;;;;;;10.00;10.00;;;;;30.69;34.26;102194.28;5094037;27;45483;-67
2022/08/09 09:27:25;;;;;;;;;8.67;8.67;;;;;30.74;33.51;102190.75;5097580;27;45459;-67
2022/08/09 09:29:52;;;;;;;;;6.33;6.33;;;;;30.64;34.07;102188.56;5092718;27;45165;-68
2022/08/09 09:32:20;;;;;;;;;8.00;8.00;;;;;30.94;33.55;102186.41;5082612;27;45369;-68
2022/08/09 09:35:04;;;;;;;;;10.00;9.00;;;;;31.16;33.09;102178.19;5093342;27;45434;-67
2022/08/09 09:37:30;;;;;;;;;10.00;8.00;;;;;31.11;32.70;102168.81;5082105;27;46411;-68
2022/08/09 09:39:55;;;;;;;;;9.33;9.00;;;;;31.40;32.68;102184.56;5091830;27;45369;-67
2022/08/09 09:42:24;;;;;;;;;0.67;0.67;;;;;31.70;31.97;102171.09;5082482;27;45401;-68
2022/08/09 09:44:57;;;;;;;;;10.67;10.67;;;;;32.39;31.18;102170.78;5093287;27;45738;-68
2022/08/09 09:47:23;;;;;;;;;11.33;10.00;;;;;32.25;30.93;102164.66;5080643;28;45633;-67
2022/08/09 09:49:51;;;;;;;;;8.00;8.00;;;;;32.47;30.95;102176.81;5092100;27;45458;-67
2022/08/09 09:52:16;;;;;;;;;12.00;10.33;;;;;32.12;30.98;102181.88;5082273;27;45318;-68
2022/08/09 09:54:45;;;;;;;;;7.67;7.00;;;;;31.96;30.64;102175.16;5089798;27;45480;-67
2022/08/09 09:57:23;;;;;;;;;7.67;7.67;;;;;32.47;30.25;102164.69;5087329;27;45501;-67
2022/08/09 09:59:51;;;;;;;;;9.00;6.00;;;;;32.80;30.19;102163.78;5092690;27;45450;-67
2022/08/09 10:02:17;;;;;;;;;7.00;7.00;;;;;32.65;29.33;102157.91;5079975;28;45359;-67
2022/08/09 10:04:44;;;;;;;;;9.00;9.00;;;;;33.13;29.94;102155.16;5078470;27;45450;-66
2022/08/09 10:07:24;;;;;;;;;11.00;11.00;;;;;33.24;28.26;102154.16;5104780;27;45282;-69
2022/08/09 10:09:54;;;;;;;;;9.67;9.67;;;;;33.31;28.86;102153.97;5077295;27;45404;-65
2022/08/09 10:12:36;;;;;;;;;9.00;7.00;;;;;32.89;28.87;102156.53;5092050;27;45400;-67
2022/08/09 10:15:16;;;;;;;;;7.67;7.67;;;;;33.60;27.98;102148.88;5091117;27;45818;-68
2022/08/09 10:17:49;;;;;;;;;8.33;8.33;;;;;33.84;28.04;102164.31;5097659;27;45457;-67
2022/08/09 10:20:20;;;;;;;;;8.00;8.00;;;;;34.45;27.62;102156.31;5091959;27;45421;-68
2022/08/09 10:22:48;;;;;;;;;10.33;9.00;;;;;34.19;26.78;102160.09;5099896;27;46225;-68
2022/08/09 10:25:14;;;;;;;;;12.00;10.00;;;;;34.61;27.10;102151.59;5092033;27;45268;-68
2022/08/09 10:27:44;;;;;;;;;9.00;9.00;;;;;34.11;26.80;102152.13;5073244;27;46712;-68
2022/08/09 10:30:10;;;;;;;;;8.00;8.00;;;;;34.02;27.09;102143.31;5090102;27;45367;-68
2022/08/09 10:32:36;;;;;;;;;8.33;7.33;;;;;33.95;26.33;102148.34;5085101;27;45449;-68
2022/08/09 10:35:02;;;;;;;;;12.00;11.00;;;;;34.40;25.64;102158.25;5072981;28;45385;-68
2022/08/09 10:37:28;;;;;;;;;6.33;6.33;;;;;34.68;25.54;102141.75;5084363;27;46449;-68
2022/08/09 10:39:54;;;;;;;;;9.33;8.00;;;;;34.77;25.99;102150.56;5092842;27;45238;-68
2022/08/09 10:42:21;;;;;;;;;8.00;8.00;;;;;34.93;24.91;102157.94;5092655;27;45270;-67
2022/08/09 10:44:56;;;;;;;;;9.33;9.00;;;;;35.42;24.80;102147.09;5091379;27;45346;-68
2022/08/09 10:47:59;;;;;;;;;9.33;8.00;;;;;34.88;25.00;102137.31;5093178;27;46324;-68
2022/08/09 10:51:13;;;;;;;;;10.00;10.00;;;;;34.70;25.08;102144.28;5012606;28;45366;-68
2022/08/09 10:53:52;;;;;;;;;4.67;4.67;;;;;34.99;25.59;102137.09;5100181;27;45496;-68
2022/08/09 10:56:23;;;;;;;;;8.00;6.00;;;;;34.52;25.88;102139.97;5093749;27;45366;-67
2022/08/09 10:58:50;;;;;;;;;4.25;4.25;;;;;34.63;25.80;102132.41;5089804;27;46009;-68
2022/08/09 11:01:30;;;;;;;;;8.33;7.33;;;;;34.27;25.63;102134.19;5092112;27;45417;-68
2022/08/09 11:04:08;;;;;;;;;7.67;7.67;;;;;34.54;26.05;102134.06;5090740;27;45460;-68
2022/08/09 11:06:36;;;;;;;;;8.33;8.33;;;;;35.04;25.40;102130.59;5084573;27;45609;-68
2022/08/09 11:09:03;;;;;;;;;6.00;6.00;;;;;34.68;24.74;102124.81;5088624;27;45559;-68
2022/08/09 11:11:57;;;;;;;;;8.67;7.67;;;;;34.82;25.08;102132.78;5085225;27;45433;-68
2022/08/09 11:14:33;;;;;;;;;9.25;9.25;;;;;35.19;24.79;102132.59;5086538;27;45427;-68
2022/08/09 11:16:59;;;;;;;;;6.75;6.75;;;;;36.01;23.72;102131.53;5087839;27;45460;-68
2022/08/09 11:19:49;;;;;;;;;11.50;11.00;;;;;36.61;22.82;102122.00;5093826;27;45503;-68
2022/08/09 11:22:18;;;;;;;;;7.00;7.00;;;;;37.03;22.69;102122.41;5066094;28;45568;-69
2022/08/09 11:25:11;;;;;;;;;7.33;7.33;;;;;37.20;21.83;102121.19;5096657;27;45385;-68